createdAt,value
2018-07-17T00:01:42.948Z,20.75
2018-07-17T00:04:08.931Z,20.72
2018-07-17T00:06:34.913Z,20.77
2018-07-17T00:09:00.900Z,20.68
2018-07-17T00:11:26.862Z,20.91
2018-07-17T00:13:52.825Z,20.93
2018-07-17T00:16:18.765Z,20.66
2018-07-17T00:18:44.729Z,20.86
2018-07-17T00:21:10.695Z,20.60
2018-07-17T00:23:36.682Z,20.37
2018-07-17T00:26:02.676Z,20.48
2018-07-17T00:28:28.634Z,20.42
2018-07-17T00:30:54.586Z,20.45
2018-07-17T00:33:20.541Z,20.28
2018-07-17T00:35:46.493Z,20.27
2018-07-17T00:38:12.405Z,20.19
2018-07-17T00:40:38.354Z,20.16
2018-07-17T00:43:04.303Z,20.42
2018-07-17T00:45:30.299Z,20.79
2018-07-17T00:47:56.287Z,21.21
2018-07-17T00:50:22.275Z,21.24
2018-07-17T00:52:48.228Z,21.14
2018-07-17T00:55:14.168Z,20.95
2018-07-17T00:57:40.141Z,20.51
2018-07-17T01:00:06.094Z,21.03
2018-07-17T01:02:32.079Z,20.75
2018-07-17T01:04:58.103Z,20.41
2018-07-17T01:07:24.072Z,20.33
2018-07-17T01:09:50.009Z,20.62
2018-07-17T01:12:15.944Z,20.58
2018-07-17T01:14:41.924Z,20.83
2018-07-17T01:17:07.862Z,21.11
2018-07-17T01:19:33.823Z,20.81
2018-07-17T01:21:59.815Z,20.53
2018-07-17T01:24:25.806Z,20.05
2018-07-17T01:26:51.778Z,20.01
2018-07-17T01:29:17.744Z,20.35
2018-07-17T01:31:43.703Z,20.55
2018-07-17T01:34:09.657Z,20.05
2018-07-17T01:36:35.637Z,20.03
2018-07-17T01:39:01.596Z,20.21
2018-07-17T01:41:27.582Z,19.81
2018-07-17T01:43:53.547Z,19.93
2018-07-17T01:46:19.535Z,20.24
2018-07-17T01:48:45.497Z,19.88
2018-07-17T01:51:11.468Z,19.82
2018-07-17T01:53:37.409Z,19.81
2018-07-17T01:56:03.350Z,19.75
2018-07-17T01:58:29.315Z,19.26
2018-07-17T02:00:55.272Z,19.44
2018-07-17T02:03:21.243Z,19.71
2018-07-17T02:05:47.211Z,19.74
2018-07-17T02:08:13.158Z,19.81
2018-07-17T02:10:39.123Z,19.60
2018-07-17T02:13:05.094Z,19.15
2018-07-17T02:15:31.057Z,19.43
2018-07-17T02:17:56.990Z,19.28
2018-07-17T02:20:23.022Z,19.44
2018-07-17T02:22:48.966Z,19.50
2018-07-17T02:25:14.963Z,19.50
2018-07-17T02:27:40.913Z,19.15
2018-07-17T02:30:06.911Z,19.36
2018-07-17T02:32:32.860Z,19.56
2018-07-17T02:34:58.827Z,19.38
2018-07-17T02:37:24.776Z,19.34
2018-07-17T02:39:50.715Z,19.17
2018-07-17T02:42:16.680Z,19.30
2018-07-17T02:44:42.638Z,19.59
2018-07-17T02:47:08.572Z,19.29
2018-07-17T02:49:34.584Z,19.14
2018-07-17T02:52:00.542Z,19.47
2018-07-17T02:54:26.529Z,19.09
2018-07-17T02:56:52.485Z,19.21
2018-07-17T02:59:18.417Z,19.40
2018-07-17T03:01:44.423Z,19.21
2018-07-17T03:04:10.382Z,18.81
2018-07-17T03:06:36.376Z,18.67
2018-07-17T03:09:02.317Z,18.97
2018-07-17T03:11:28.277Z,19.12
2018-07-17T03:13:54.223Z,19.04
2018-07-17T03:16:20.169Z,18.97
2018-07-17T03:18:46.103Z,19.37
2018-07-17T03:21:12.075Z,19.52
2018-07-17T03:23:38.049Z,19.31
2018-07-17T03:26:04.085Z,19.53
2018-07-17T03:28:30.069Z,19.70
2018-07-17T03:30:56.009Z,19.51
2018-07-17T03:33:21.952Z,19.31
2018-07-17T03:35:47.908Z,19.58
2018-07-17T03:38:13.918Z,19.58
2018-07-17T03:40:39.865Z,19.31
2018-07-17T03:43:05.827Z,19.16
2018-07-17T03:45:31.815Z,19.04
2018-07-17T03:47:57.788Z,19.26
2018-07-17T03:50:23.717Z,19.75
2018-07-17T03:52:49.659Z,20.02
2018-07-17T03:55:15.640Z,19.85
2018-07-17T03:57:41.601Z,19.98
2018-07-17T04:00:07.565Z,19.83
2018-07-17T04:02:33.532Z,20.00
2018-07-17T04:04:59.508Z,20.23
2018-07-17T04:07:25.452Z,20.30
2018-07-17T04:09:51.424Z,20.01
2018-07-17T04:12:17.386Z,19.97
2018-07-17T04:14:43.361Z,19.80
2018-07-17T04:17:09.323Z,19.59
2018-07-17T04:19:35.271Z,19.55
2018-07-17T04:22:01.228Z,20.02
2018-07-17T04:24:27.165Z,19.82
2018-07-17T04:26:53.106Z,19.86
2018-07-17T04:29:19.060Z,20.08
2018-07-17T04:31:45.025Z,20.35
2018-07-17T04:34:10.976Z,20.33
2018-07-17T04:36:36.956Z,20.18
2018-07-17T04:39:02.937Z,20.12
2018-07-17T04:41:28.919Z,20.38
2018-07-17T04:43:54.894Z,20.50
2018-07-17T04:46:20.832Z,20.92
2018-07-17T04:48:46.814Z,21.11
2018-07-17T04:51:12.756Z,21.20
2018-07-17T04:53:38.725Z,21.27
2018-07-17T04:56:04.665Z,21.37
2018-07-17T04:58:30.637Z,21.05
2018-07-17T05:00:56.583Z,20.87
2018-07-17T05:03:22.670Z,21.53
2018-07-17T05:05:48.629Z,21.51
2018-07-17T05:08:14.595Z,21.32
2018-07-17T05:10:40.530Z,21.58
2018-07-17T05:13:06.468Z,21.21
2018-07-17T05:15:32.400Z,21.11
2018-07-17T05:17:58.355Z,21.08
2018-07-17T05:20:24.310Z,21.19
2018-07-17T05:22:50.417Z,20.85
2018-07-17T05:25:16.315Z,21.14
2018-07-17T05:27:42.284Z,21.22
2018-07-17T05:30:08.265Z,21.67
2018-07-17T05:32:34.286Z,21.70
2018-07-17T05:35:00.258Z,21.66
2018-07-17T05:37:26.236Z,21.91
2018-07-17T05:39:52.183Z,22.11
2018-07-17T05:42:18.130Z,22.80
2018-07-17T05:44:44.108Z,23.21
2018-07-17T05:47:10.148Z,22.81
2018-07-17T05:49:36.098Z,23.04
2018-07-17T05:52:02.173Z,23.44
2018-07-17T05:54:28.045Z,23.54
2018-07-17T05:56:54.003Z,23.57
2018-07-17T05:59:19.948Z,23.82
2018-07-17T06:01:45.910Z,24.12
2018-07-17T06:04:11.883Z,24.29
2018-07-17T06:06:37.827Z,23.92
2018-07-17T06:09:03.861Z,23.78
2018-07-17T06:11:29.831Z,24.17
2018-07-17T06:13:55.813Z,23.91
2018-07-17T06:16:21.795Z,24.00
2018-07-17T06:18:47.795Z,23.76
2018-07-17T06:21:13.780Z,23.93
2018-07-17T06:23:39.806Z,24.26
2018-07-17T06:28:31.523Z,25.05
2018-07-17T06:30:57.465Z,25.12
2018-07-17T06:33:23.437Z,25.45
2018-07-17T06:35:49.425Z,25.63
2018-07-17T06:38:15.408Z,25.87
2018-07-17T06:40:41.383Z,26.12
2018-07-17T06:43:07.369Z,26.09
2018-07-17T06:45:33.361Z,26.28
2018-07-17T06:47:59.323Z,26.52
2018-07-17T06:50:25.353Z,26.55
2018-07-17T06:52:51.272Z,26.87
2018-07-17T06:55:17.210Z,26.52
2018-07-17T06:57:43.173Z,26.19
2018-07-17T07:00:09.144Z,26.86
2018-07-17T07:02:35.189Z,27.00
2018-07-17T07:05:01.131Z,26.79
2018-07-17T07:07:27.078Z,26.95
2018-07-17T07:09:54.079Z,27.54
2018-07-17T07:12:20.048Z,27.50
2018-07-17T07:14:46.038Z,27.62
2018-07-17T07:17:11.986Z,27.90
2018-07-17T07:19:37.918Z,28.04
2018-07-17T07:22:03.871Z,28.30
2018-07-17T07:24:29.859Z,28.32
2018-07-17T07:26:55.816Z,28.04
2018-07-17T07:29:21.775Z,28.20
2018-07-17T07:31:47.733Z,28.07
2018-07-17T07:34:13.723Z,28.22
2018-07-17T07:36:39.683Z,27.60
2018-07-17T07:39:05.657Z,27.90
2018-07-17T07:41:31.610Z,28.25
2018-07-17T07:43:57.671Z,28.61
2018-07-17T07:46:23.613Z,28.96
2018-07-17T07:48:49.560Z,28.75
2018-07-17T07:51:15.494Z,28.80
2018-07-17T07:53:41.452Z,28.69
2018-07-17T07:56:07.407Z,28.61
2018-07-17T07:58:33.351Z,28.48
2018-07-17T08:00:59.353Z,28.44
2018-07-17T08:03:25.349Z,28.50
2018-07-17T08:05:51.305Z,28.52
2018-07-17T08:08:17.326Z,28.71
2018-07-17T08:10:43.274Z,28.17
2018-07-17T08:13:09.224Z,28.21
2018-07-17T08:15:35.167Z,28.26
2018-07-17T08:18:01.129Z,28.33
2018-07-17T08:20:27.089Z,28.42
2018-07-17T08:22:53.032Z,28.37
2018-07-17T08:25:19.017Z,28.05
2018-07-17T08:27:44.948Z,28.12
2018-07-17T08:30:10.916Z,27.76
2018-07-17T08:32:36.853Z,27.53
2018-07-17T08:35:02.831Z,27.45
2018-07-17T08:37:28.757Z,27.52
2018-07-17T08:39:54.734Z,27.29
2018-07-17T08:42:20.678Z,27.22
2018-07-17T08:44:46.666Z,27.09
2018-07-17T08:47:12.622Z,26.97
2018-07-17T08:49:38.596Z,26.89
2018-07-17T08:52:04.624Z,26.73
2018-07-17T08:54:30.659Z,26.61
2018-07-17T08:56:56.572Z,26.61
2018-07-17T08:59:22.532Z,26.57
2018-07-17T09:01:48.520Z,26.54
2018-07-17T09:04:14.470Z,26.52
2018-07-17T09:06:40.422Z,26.40
2018-07-17T09:09:06.440Z,26.35
2018-07-17T09:11:32.394Z,26.45
2018-07-17T09:13:58.359Z,26.46
2018-07-17T09:16:24.307Z,26.46
2018-07-17T09:18:50.258Z,26.34
2018-07-17T09:21:16.237Z,26.34
2018-07-17T09:23:42.203Z,26.14
2018-07-17T09:26:08.176Z,26.15
2018-07-17T09:28:34.136Z,26.22
2018-07-17T09:31:00.109Z,26.01
2018-07-17T09:33:26.107Z,26.04
2018-07-17T09:35:52.082Z,26.08
2018-07-17T09:38:18.085Z,25.98
2018-07-17T09:40:44.084Z,26.00
2018-07-17T09:43:10.041Z,26.19
2018-07-17T09:45:36.000Z,26.08
2018-07-17T09:48:01.993Z,25.98
2018-07-17T09:50:27.988Z,25.97
2018-07-17T09:52:53.929Z,25.98
2018-07-17T09:55:19.885Z,25.78
2018-07-17T09:57:45.845Z,25.79
2018-07-17T10:00:11.834Z,25.85
2018-07-17T10:02:37.789Z,25.90
2018-07-17T10:05:03.792Z,25.92
2018-07-17T10:07:29.767Z,25.82
2018-07-17T10:09:55.748Z,25.90
2018-07-17T10:12:21.726Z,25.91
2018-07-17T10:14:47.696Z,25.98
2018-07-17T10:17:13.630Z,25.88
2018-07-17T10:19:39.640Z,25.85
2018-07-17T10:22:05.665Z,25.83
2018-07-17T10:24:31.688Z,25.94
2018-07-17T10:26:57.645Z,26.22
2018-07-17T10:29:23.605Z,26.11
2018-07-17T10:31:49.544Z,26.11
2018-07-17T10:34:15.514Z,26.13
2018-07-17T10:36:41.465Z,25.98
2018-07-17T10:39:07.425Z,26.03
2018-07-17T10:41:33.383Z,25.98
2018-07-17T10:43:59.341Z,25.95
2018-07-17T10:46:25.324Z,25.90
2018-07-17T10:48:51.256Z,26.07
2018-07-17T10:51:17.236Z,25.94
2018-07-17T10:53:43.210Z,25.91
2018-07-17T10:56:09.204Z,25.91
2018-07-17T10:58:35.194Z,25.96
2018-07-17T11:01:01.237Z,25.93
2018-07-17T11:03:27.179Z,26.09
2018-07-17T11:05:53.149Z,25.97
2018-07-17T11:08:19.222Z,26.10
2018-07-17T11:10:45.176Z,26.22
2018-07-17T11:13:11.126Z,26.16
2018-07-17T11:15:37.137Z,26.03
2018-07-17T11:18:03.080Z,26.10
2018-07-17T11:20:29.052Z,25.95
2018-07-17T11:22:55.034Z,26.03
2018-07-17T11:25:21.007Z,26.01
2018-07-17T11:27:46.961Z,25.90
2018-07-17T11:30:12.917Z,25.85
2018-07-17T11:32:38.860Z,25.91
2018-07-17T11:35:04.806Z,25.76
2018-07-17T11:37:30.764Z,25.77
2018-07-17T11:39:56.717Z,25.82
2018-07-17T11:42:22.672Z,25.75
2018-07-17T11:44:48.623Z,25.86
2018-07-17T11:47:14.578Z,25.84
2018-07-17T11:49:40.543Z,25.76
2018-07-17T11:52:06.515Z,25.80
2018-07-17T11:54:32.477Z,25.79
2018-07-17T11:56:58.420Z,25.70
2018-07-17T11:59:24.538Z,25.92
2018-07-17T12:01:50.348Z,25.91
2018-07-17T12:04:16.292Z,25.83
2018-07-17T12:06:42.291Z,25.86
2018-07-17T12:09:08.273Z,25.93
2018-07-17T12:11:34.245Z,25.89
2018-07-17T12:14:00.210Z,25.85
2018-07-17T12:16:26.167Z,25.89
2018-07-17T12:18:52.124Z,25.81
2018-07-17T12:21:18.085Z,25.79
2018-07-17T12:23:44.096Z,25.79
2018-07-17T12:26:10.068Z,25.69
2018-07-17T12:28:36.001Z,25.70
2018-07-17T12:31:01.955Z,25.81
2018-07-17T12:33:27.959Z,25.83
2018-07-17T12:35:53.907Z,25.81
2018-07-17T12:38:19.970Z,25.82
2018-07-17T12:40:45.906Z,25.92
2018-07-17T12:43:11.868Z,25.86
2018-07-17T12:45:37.844Z,25.82
2018-07-17T12:48:03.811Z,25.75
2018-07-17T12:50:29.773Z,25.70
2018-07-17T12:52:55.741Z,25.75
2018-07-17T12:55:21.767Z,25.89
2018-07-17T12:57:48.064Z,25.82
2018-07-17T13:00:14.021Z,25.88
2018-07-17T13:02:39.992Z,25.83
2018-07-17T13:05:05.937Z,25.77
2018-07-17T13:07:31.930Z,25.91
2018-07-17T13:09:57.910Z,25.95
2018-07-17T13:12:23.880Z,25.77
2018-07-17T13:14:49.867Z,25.77
2018-07-17T13:17:15.785Z,25.75
2018-07-17T13:19:41.740Z,25.80
2018-07-17T13:22:07.674Z,25.78
2018-07-17T13:24:33.764Z,25.79
2018-07-17T13:26:59.768Z,25.84
2018-07-17T13:29:25.729Z,25.87
2018-07-17T13:31:51.785Z,25.91
2018-07-17T13:34:17.798Z,25.93
2018-07-17T13:36:43.822Z,25.83
2018-07-17T13:39:11.880Z,25.92
2018-07-17T13:41:37.831Z,25.86
2018-07-17T13:44:03.772Z,25.92
2018-07-17T13:46:29.727Z,25.98
2018-07-17T13:48:55.683Z,26.05
2018-07-17T13:51:21.709Z,26.08
2018-07-17T13:53:47.688Z,25.96
2018-07-17T13:56:13.706Z,25.96
2018-07-17T13:58:39.637Z,25.88
2018-07-17T14:01:05.661Z,25.97
2018-07-17T14:03:31.619Z,26.03
2018-07-17T14:05:57.578Z,26.05
2018-07-17T14:08:23.556Z,26.14
2018-07-17T14:10:49.504Z,26.03
2018-07-17T14:13:15.468Z,26.08
2018-07-17T14:15:41.418Z,25.96
2018-07-17T14:18:07.370Z,25.97
2018-07-17T14:20:33.336Z,25.98
2018-07-17T14:22:59.315Z,25.98
2018-07-17T14:25:25.281Z,25.95
2018-07-17T14:27:51.327Z,26.04
2018-07-17T14:30:17.468Z,26.13
2018-07-17T14:32:43.468Z,26.29
2018-07-17T14:35:09.409Z,26.20
2018-07-17T14:37:35.355Z,26.35
2018-07-17T14:40:01.328Z,26.27
2018-07-17T14:42:27.387Z,26.24
2018-07-17T14:44:53.340Z,26.15
2018-07-17T14:47:19.291Z,26.12
2018-07-17T14:49:45.262Z,26.10
2018-07-17T14:52:11.231Z,26.17
2018-07-17T14:54:37.193Z,26.24
2018-07-17T14:57:03.159Z,26.19
2018-07-17T14:59:29.134Z,26.42
2018-07-17T15:01:55.076Z,26.39
2018-07-17T15:04:21.045Z,26.27
2018-07-17T15:06:47.017Z,26.43
2018-07-17T15:09:13.001Z,26.51
2018-07-17T15:11:39.064Z,26.32
2018-07-17T15:14:05.056Z,26.36
2018-07-17T15:16:31.040Z,26.29
2018-07-17T15:18:56.988Z,26.29
2018-07-17T15:21:22.977Z,26.31
2018-07-17T15:23:48.933Z,26.20
2018-07-17T15:26:14.999Z,26.24
2018-07-17T15:28:40.984Z,26.22
2018-07-17T15:31:06.973Z,26.14
2018-07-17T15:33:32.908Z,26.32
2018-07-17T15:35:58.895Z,26.24
2018-07-17T15:38:24.972Z,26.15
2018-07-17T15:40:50.877Z,26.28
2018-07-17T15:43:16.843Z,26.26
2018-07-17T15:45:42.913Z,26.35
2018-07-17T15:48:08.892Z,26.43
2018-07-17T15:50:34.888Z,26.50
2018-07-17T15:53:00.941Z,26.37
2018-07-17T15:55:27.109Z,26.30
2018-07-17T15:57:53.170Z,26.22
2018-07-17T16:00:19.160Z,26.38
2018-07-17T16:02:45.114Z,26.40
2018-07-17T16:05:11.080Z,26.14
2018-07-17T16:07:37.105Z,26.18
2018-07-17T16:10:03.132Z,26.33
2018-07-17T16:12:29.089Z,26.32
2018-07-17T16:14:55.070Z,26.49
2018-07-17T16:17:21.005Z,26.53
2018-07-17T16:19:46.971Z,26.55
2018-07-17T16:22:12.897Z,26.62
2018-07-17T16:24:38.913Z,26.48
2018-07-17T16:27:04.872Z,26.44
2018-07-17T16:29:31.067Z,26.37
2018-07-17T16:31:57.135Z,26.44
2018-07-17T16:34:23.067Z,26.51
2018-07-17T16:36:49.158Z,26.34
2018-07-17T16:39:15.093Z,26.35
2018-07-17T16:41:41.111Z,26.32
2018-07-17T16:44:07.145Z,26.29
2018-07-17T16:46:33.146Z,26.32
2018-07-17T16:48:59.116Z,26.35
2018-07-17T16:51:25.117Z,26.43
2018-07-17T16:53:53.111Z,26.40
2018-07-17T16:56:19.065Z,26.28
2018-07-17T17:03:48.434Z,26.41
2018-07-17T17:06:14.405Z,26.38
2018-07-17T17:08:40.485Z,26.40
2018-07-17T17:11:06.513Z,26.34
2018-07-17T17:13:32.457Z,26.34
2018-07-17T17:15:58.427Z,26.34
2018-07-17T17:18:24.483Z,26.48
2018-07-17T17:20:50.541Z,26.42
2018-07-17T17:23:16.682Z,26.31
2018-07-17T17:25:42.655Z,26.27
2018-07-17T17:28:08.703Z,26.32
2018-07-17T17:30:34.678Z,26.45
2018-07-17T17:33:00.655Z,26.35
2018-07-17T17:35:26.654Z,26.38
2018-07-17T17:37:52.626Z,26.28
2018-07-17T17:40:18.627Z,26.43
2018-07-17T17:42:44.584Z,26.44
2018-07-17T17:45:10.555Z,26.43
2018-07-17T17:47:36.504Z,26.27
2018-07-17T17:50:02.466Z,26.28
2018-07-17T17:52:29.439Z,26.41
2018-07-17T17:54:55.417Z,26.43
2018-07-17T17:57:21.350Z,26.39
2018-07-17T17:59:47.580Z,26.34
2018-07-17T18:02:14.837Z,26.38
2018-07-17T18:04:41.680Z,26.42
2018-07-17T18:07:07.655Z,26.36
2018-07-17T18:09:33.613Z,26.30
2018-07-17T18:11:59.661Z,26.29
2018-07-17T18:14:25.646Z,26.31
2018-07-17T18:16:51.638Z,26.27
2018-07-17T18:19:17.621Z,26.39
2018-07-17T18:21:43.629Z,26.21
2018-07-17T18:24:09.640Z,26.28
2018-07-17T18:26:35.646Z,26.24
2018-07-17T18:29:01.618Z,26.27
2018-07-17T18:31:27.629Z,26.32
2018-07-17T18:33:53.603Z,25.36
2018-07-17T18:36:19.732Z,26.30
2018-07-17T18:38:45.705Z,26.29
2018-07-17T18:41:11.721Z,26.38
2018-07-17T18:43:37.684Z,26.38
2018-07-17T18:46:04.749Z,26.41
2018-07-17T18:48:30.720Z,26.33
2018-07-17T18:50:56.676Z,25.81
2018-07-17T18:53:22.772Z,26.29
2018-07-17T18:55:48.780Z,26.37
2018-07-17T18:58:16.268Z,26.44
2018-07-17T19:00:43.322Z,26.74
2018-07-17T19:05:42.234Z,27.11
2018-07-17T19:08:09.132Z,27.07
2018-07-17T19:10:35.850Z,26.79
2018-07-17T19:13:01.931Z,26.60
2018-07-17T19:15:28.099Z,26.44
2018-07-17T19:17:55.249Z,26.33
2018-07-17T19:20:21.337Z,26.21
2018-07-17T19:22:47.445Z,26.14
2018-07-17T19:25:13.486Z,26.02
2018-07-17T19:27:39.533Z,25.98
2018-07-17T19:30:05.580Z,25.89
2018-07-17T19:32:31.722Z,25.87
2018-07-17T19:34:57.781Z,25.81
2018-07-17T19:37:23.813Z,25.79
2018-07-17T19:39:51.014Z,25.77
2018-07-17T19:42:17.060Z,25.77
2018-07-17T19:44:43.083Z,25.71
2018-07-17T19:47:09.214Z,25.73
2018-07-17T19:49:35.295Z,25.66
2018-07-17T19:52:01.370Z,25.51
2018-07-17T19:54:28.537Z,25.50
2018-07-17T19:56:57.995Z,25.49
2018-07-17T19:59:24.100Z,25.44
2018-07-17T20:01:50.225Z,25.41
2018-07-17T20:04:17.464Z,25.38
2018-07-17T20:06:45.580Z,25.38
2018-07-17T20:09:11.783Z,25.40
2018-07-17T20:11:37.847Z,25.23
2018-07-17T20:14:05.954Z,25.23
2018-07-17T20:16:31.998Z,25.24
2018-07-17T20:18:58.080Z,25.36
2018-07-17T20:21:25.122Z,25.36
2018-07-17T20:23:51.115Z,25.28
2018-07-17T20:26:17.159Z,25.28
2018-07-17T20:28:43.305Z,25.25
2018-07-17T20:31:11.496Z,25.16
2018-07-17T20:33:39.700Z,25.29
2018-07-17T20:36:05.735Z,25.21
2018-07-17T20:38:31.778Z,25.12
2018-07-17T20:40:57.902Z,25.15
2018-07-17T20:43:23.922Z,25.18
2018-07-17T20:45:51.034Z,25.07
2018-07-17T20:48:17.155Z,25.03
2018-07-17T20:50:43.226Z,25.02
2018-07-17T20:53:09.270Z,25.03
2018-07-17T20:55:35.293Z,24.98
2018-07-17T20:58:01.384Z,25.01
2018-07-17T21:00:28.505Z,25.04
2018-07-17T21:02:54.492Z,25.04
2018-07-17T21:05:20.534Z,25.05
2018-07-17T21:07:46.646Z,25.11
2018-07-17T21:10:12.817Z,24.96
2018-07-17T21:12:39.319Z,24.94
2018-07-17T21:15:05.399Z,25.03
2018-07-17T21:17:32.492Z,24.92
2018-07-17T21:19:58.508Z,24.77
2018-07-17T21:22:24.582Z,24.90
2018-07-17T21:24:50.574Z,24.97
2018-07-17T21:27:16.568Z,24.86
2018-07-17T21:29:42.680Z,24.77
2018-07-17T21:32:08.715Z,24.74
2018-07-17T21:34:34.710Z,24.66
2018-07-17T21:37:00.752Z,24.74
2018-07-17T21:39:26.731Z,24.51
2018-07-17T21:41:52.720Z,24.43
2018-07-17T21:44:23.543Z,24.59
2018-07-17T21:46:49.603Z,24.58
2018-07-17T21:49:15.565Z,24.49
2018-07-17T21:51:41.541Z,24.44
2018-07-17T21:54:07.568Z,24.49
2018-07-17T21:56:34.412Z,24.22
2018-07-17T21:59:00.421Z,24.06
2018-07-17T22:01:26.484Z,24.16
2018-07-17T22:03:52.497Z,24.31
2018-07-17T22:06:18.558Z,24.29
2018-07-17T22:08:44.655Z,24.02
2018-07-17T22:11:10.704Z,24.08
2018-07-17T22:13:36.750Z,24.10
2018-07-17T22:16:02.764Z,24.00
2018-07-17T22:18:28.755Z,24.14
2018-07-17T22:20:54.765Z,24.04
2018-07-17T22:23:20.822Z,24.15
2018-07-17T22:25:46.816Z,24.04
2018-07-17T22:28:12.802Z,24.18
2018-07-17T22:30:38.833Z,24.00
2018-07-17T22:33:04.955Z,23.87
2018-07-17T22:35:30.964Z,23.68
2018-07-17T22:37:56.996Z,23.58
2018-07-17T22:40:22.974Z,23.77
2018-07-17T22:42:48.930Z,23.61
2018-07-17T22:45:14.903Z,23.76
2018-07-17T22:47:40.873Z,23.79
2018-07-17T22:50:06.917Z,23.69
2018-07-17T22:52:32.938Z,23.82
2018-07-17T22:54:58.999Z,23.61
2018-07-17T22:57:25.080Z,23.64
2018-07-17T22:59:51.071Z,23.41
2018-07-17T23:02:17.213Z,23.50
2018-07-17T23:04:43.271Z,23.43
2018-07-17T23:07:09.574Z,23.54
2018-07-17T23:09:35.662Z,23.41
2018-07-17T23:12:01.711Z,23.60
2018-07-17T23:14:27.647Z,23.71
2018-07-17T23:16:54.237Z,23.53
2018-07-17T23:19:20.891Z,23.57
2018-07-17T23:21:47.404Z,23.36
2018-07-17T23:24:13.456Z,23.29
2018-07-17T23:26:40.654Z,23.30
2018-07-17T23:29:06.621Z,23.49
2018-07-17T23:31:32.621Z,23.52
2018-07-17T23:33:58.594Z,23.28
2018-07-17T23:36:24.547Z,23.45
2018-07-17T23:38:50.550Z,23.29
2018-07-17T23:41:16.543Z,23.32
2018-07-17T23:43:42.507Z,23.43
2018-07-17T23:46:08.490Z,23.37
2018-07-17T23:48:34.478Z,23.30
2018-07-17T23:51:00.519Z,23.41
2018-07-17T23:53:26.506Z,23.41
2018-07-17T23:55:52.491Z,23.36
2018-07-17T23:58:18.474Z,23.46
